Flight Track Log - Related Links

Times and Time Zones

All times are in EDT time to prevent confusion due to time zone crossing. See the UAL538 flight status page for this flight to view local times or setup timezone preferences in your user account.

Time Position Orientation Groundspeed Altitude Reporting Facility
EDT Latitude Longitude Course Direction KTS MPH feet Rate Location/Type
Sat 16:12:33 33.9261 -118.4794 55° Northeast 224 258 2,500  Level Los Center
Sat 16:13:35 33.9022 -118.5567 250° West 245 282 5,100 2,710 Climbing Los Center
Sat 16:14:00 34.1203 -118.0928 59° Northeast  Level FlightAware
Sat 16:14:37 33.8442 -118.5936 208° Southwest 276 318 8,100  Level Los Center
Sat 16:15:00 34.1835 -117.9664 59° Northeast  Level FlightAware
Sat 16:15:39 33.8497 -118.5078 86° East 300 345 10,800  Level Los Center
Sat 16:16:00 34.2496 -117.8423 51° Northeast  Level FlightAware
Sat 16:16:41 33.9150 -118.4503 36° Northeast 324 373 12,600  Level Los Center
Sat 16:17:00 34.3173 -117.7239 55° Northeast  Level FlightAware
Sat 16:17:43 33.9783 -118.3544 51° Northeast 368 423 14,500  Level Los Center
Sat 16:18:45 34.0517 -118.2242 56° Northeast 387 445 17,100 2,129 Climbing Los Center
Sat 16:19:47 34.1164 -118.1094 56° Northeast 408 470 18,900 2,160 Climbing Los Center
Sat 16:20:50 34.1847 -117.9903 55° Northeast 428 493 21,600 2,016 Climbing Los Center
Sat 16:21:52 34.2519 -117.8714 56° Northeast 428 493 23,100 1,306 Climbing Los Center
Sat 16:22:54 34.3217 -117.7450 56° Northeast 447 514 24,300 1,113 Climbing Los Center
Sat 16:23:56 34.4019 -117.6006 56° Northeast 475 547 25,400 1,161 Climbing Los Center
Sat 16:24:58 34.4783 -117.4608 56° Northeast 496 571 26,700 1,161 Climbing Los Center
Sat 16:26:00 34.5561 -117.3192 56° Northeast 508 585 27,800 1,113 Climbing Los Center
Sat 16:27:02 34.6369 -117.1739 56° Northeast 520 598 29,000 1,403 Climbing Los Center
Sat 16:28:04 34.7328 -116.9981 56° Northeast 524 603 30,700 1,548 Climbing Los Center
Sat 16:29:06 34.8117 -116.8517 57° Northeast 523 602 32,200 1,113 Climbing Los Center
Sat 16:30:08 34.8906 -116.7075 56° Northeast 516 594 33,000 387 Climbing Los Center
Sat 16:31:10 34.9722 -116.5631 55° Northeast 520 598 33,000  Level Los Center
Sat 16:32:12 35.0706 -116.4381 46° Northeast 513 590 33,000  Level Los Center
Sat 16:33:14 35.1903 -116.2889 45° Northeast 514 592 33,000  Level Los Center
Sat 16:34:16 35.2886 -116.1639 46° Northeast 512 589 33,000  Level Los Center
Sat 16:35:18 35.3883 -116.0389 46° Northeast 514 592 33,000  Level Los Center
Sat 16:36:20 35.4892 -115.9136 45° Northeast 517 595 33,000  Level Los Center
Sat 16:37:22 35.5919 -115.7842 46° Northeast 515 593 33,000  Level Los Center
Sat 16:38:24 35.7108 -115.6339 46° Northeast 513 590 33,000  Level Los Center
Sat 16:39:26 35.8097 -115.5072 46° Northeast 515 593 33,000  Level Los Center
Sat 16:40:28 35.9069 -115.3800 47° Northeast 512 589 33,000  Level Los Center
Sat 16:41:30 36.0072 -115.2525 46° Northeast 518 596 33,000 484 Level Los Center
Sat 16:42:32 36.0844 -115.1050 57° Northeast 522 601 34,000 484 Climbing Los Center
Sat 16:43:34 36.1169 -114.8950 79° East 522 601 34,000  Level Los Center
Sat 16:44:36 36.1406 -114.7172 81° East 525 604 34,000 194 Level Los Center
Sat 16:45:38 36.1658 -114.5400 80° East 525 604 34,400 484 Climbing Los Center
Sat 16:46:40 36.1906 -114.3625 80° East 526 605 35,000 290 Climbing Los Center
Sat 16:47:42 36.2169 -114.1875 79° East 520 598 35,000  Level Los Center
Sat 16:48:44 36.2411 -114.0103 80° East 522 601 35,000  Level Los Center
Sat 16:49:46 36.2694 -113.7986 81° East 521 600 35,000  Level Los Center
Sat 16:50:48 36.2928 -113.6206 81° East 522 601 35,000  Level Los Center
Sat 16:51:50 36.3181 -113.4436 80° East 523 602 35,000  Level Los Center
Sat 16:52:52 36.3408 -113.2664 81° East 521 600 35,000  Level Los Center
Sat 16:53:54 36.3633 -113.0869 81° East 523 602 35,000  Level Los Center
Sat 16:54:56 36.3817 -112.9450 81° East 524 603 35,000  Level Los Center
Sat 16:55:58 36.4122 -112.6981 81° East 522 601 35,000  Level Los Center
Sat 16:57:00 36.4347 -112.5253 81° East 515 593 35,000  Level Los Center
Sat 16:58:02 36.4569 -112.3486 81° East 519 597 35,000  Level Los Center
Sat 16:59:04 36.4783 -112.1733 81° East 518 596 35,000  Level Los Center
Sat 17:00:06 36.5011 -111.9983 81° East 517 595 35,000  Level Los Center
Sat 17:01:08 36.5439 -111.8264 73° East 522 601 35,000  Level Los Center
Sat 17:02:10 36.5964 -111.6239 72° East 516 594 35,000  Level Los Center
Sat 17:03:12 36.6406 -111.4533 72° East 520 598 35,000  Level Los Center
Sat 17:04:14 36.6847 -111.2839 72° East 518 596 35,000  Level Los Center
Sat 17:05:29 36.7367 -111.0789 72° East 518 596 35,000  Level Denver Center
Sat 17:06:30 36.7806 -110.9092 72° East 517 595 35,000  Level Denver Center
Sat 17:07:32 36.8283 -110.7067 74° East 517 595 35,000  Level Denver Center
Sat 17:08:34 36.8697 -110.5358 73° East 517 595 35,000  Level Denver Center
Sat 17:09:35 36.9114 -110.3664 73° East 515 593 35,000  Level Denver Center
Sat 17:10:37 36.9528 -110.1953 73° East 515 593 35,000  Level Denver Center
Sat 17:11:39 36.9942 -110.0222 73° East 517 595 35,000  Level Denver Center
Sat 17:12:40 37.0233 -109.8250 79° East 516 594 35,000  Level Denver Center
Sat 17:13:42 37.0444 -109.6547 81° East 515 593 35,000  Level Denver Center
Sat 17:14:44 37.0667 -109.4847 81° East 516 594 35,000  Level Denver Center
Sat 17:15:45 37.0911 -109.2847 81° East 519 597 35,000  Level Denver Center
Sat 17:16:47 37.1131 -109.1139 81° East 518 596 35,000  Level Denver Center
Sat 17:17:49 37.1378 -108.9133 81° East 519 597 35,000  Level Denver Center
Sat 17:18:50 37.1592 -108.7408 81° East 523 602 35,000  Level Denver Center
Sat 17:19:51 37.1786 -108.5961 80° East 525 604 35,000  Level Denver Center
Sat 17:20:53 37.2103 -108.3697 80° East 518 596 35,000  Level Denver Center
Sat 17:21:55 37.2336 -108.1994 80° East 517 595 35,000  Level Denver Center
Sat 17:22:57 37.2589 -107.9975 81° East 522 601 35,000  Level Denver Center
Sat 17:23:58 37.2814 -107.8258 81° East 520 598 35,000  Level Denver Center
Sat 17:25:00 37.3072 -107.6256 81° East 521 600 35,000  Level Denver Center
Sat 17:26:02 37.3289 -107.4522 81° East 524 603 35,000  Level Denver Center
Sat 17:27:03 37.3519 -107.2803 80° East 523 602 35,000  Level Denver Center
Sat 17:28:05 37.3769 -107.0775 81° East 525 604 35,000  Level Denver Center
Sat 17:29:07 37.3961 -106.9028 82° East 526 605 35,000  Level Denver Center
Sat 17:30:08 37.4131 -106.7578 82° East 527 606 35,000  Level Denver Center
Sat 17:31:10 37.4419 -106.5275 81° East 520 598 35,000  Level Denver Center
Sat 17:32:12 37.4600 -106.3525 83° East 525 604 35,000  Level Denver Center
Sat 17:33:13 37.4853 -106.1525 81° East 519 597 35,000  Level Denver Center
Sat 17:34:15 37.5019 -105.9778 83° East 525 604 35,000  Level Denver Center
Sat 17:35:17 37.5331 -105.7789 79° East 520 598 35,000  Level Denver Center
Sat 17:36:18 37.5581 -105.6036 80° East 520 598 35,000  Level Denver Center
Sat 17:37:20 37.5853 -105.4322 79° East 520 598 35,000  Level Denver Center
Sat 17:38:21 37.6133 -105.2311 80° East 521 600 35,000  Level Denver Center
Sat 17:39:23 37.6378 -105.0597 80° East 519 597 35,000  Level Denver Center
Sat 17:40:25 37.6669 -104.8600 79° East 519 597 35,000  Level Denver Center
Sat 17:41:26 37.6900 -104.6883 80° East 518 596 35,000  Level Denver Center
Sat 17:42:28 37.7136 -104.5150 80° East 521 600 35,000  Level Denver Center
Sat 17:43:30 37.7417 -104.3131 80° East 518 596 35,000  Level Denver Center
Sat 17:44:31 37.7647 -104.1386 80° East 520 598 35,000  Level Denver Center
Sat 17:45:45 37.7922 -103.9347 80° East 520 598 35,000  Level Denver Center
Sat 17:46:47 37.8186 -103.7322 81° East 518 596 35,000  Level Denver Center
Sat 17:47:48 37.8444 -103.5294 81° East 520 598 35,000  Level Denver Center
Sat 17:48:50 37.8664 -103.3567 81° East 518 596 35,000  Level Denver Center
Sat 17:49:52 37.8878 -103.1844 81° East 518 596 35,000  Level Denver Center
Sat 17:50:53 37.9119 -102.9819 81° East 519 597 35,000  Level Denver Center
Sat 17:51:54 37.9294 -102.8386 81° East 518 596 35,000  Level Denver Center
Sat 17:52:56 37.9567 -102.6092 81° East 515 593 35,000  Level Denver Center
Sat 17:53:58 37.9778 -102.4400 81° East 515 593 35,000  Level Denver Center
Sat 17:55:00 37.9903 -102.2369 85° East 517 595 35,000  Level Denver Center
Sat 17:56:01 37.9919 -102.0619 89° East 519 597 35,000  Level Denver Center
Sat 17:57:15 37.9933 -101.8883 89° East 517 595 35,000  Level Denver Center
Sat 17:58:17 37.9967 -101.6564 89° East 516 594 35,000  Level Denver Center
Sat 17:59:18 37.9978 -101.4825 89° East 514 592 35,000  Level Denver Center
Sat 18:00:20 37.9997 -101.2800 89° East 514 592 35,000  Level Denver Center
Sat 18:01:34 38.0003 -101.0783 90° East 510 587 35,000  Level Denver Center
Sat 18:02:35 38.0008 -100.8775 90° East 507 583 35,000  Level Denver Center
Sat 18:03:36 38.0011 -100.7358 90° East 503 579 35,000  Level Denver Center
Sat 18:04:36 38.0003 -100.5361 90° East 500 575 35,000  Level Kansas Center
Sat 18:05:37 38.0006 -100.3403 90° East 497 572 35,000  Level Kansas Center
Sat 18:06:39 37.9992 -100.1744 91° East 494 568 35,000  Level Kansas Center
Sat 18:07:40 37.9992 -100.0131 90° East 482 555 35,000  Level Kansas Center
Sat 18:08:41 38.0083 -99.8258 86° East 477 549 35,000 228 Level Kansas Center
Sat 18:10:00 38.0223 -99.6185 85° East  Level FlightAware
Sat 18:10:44 38.0328 -99.4861 85° East 468 539 35,700  Level Kansas Center
Sat 18:11:46 38.0400 -99.3456 86° East 472 543 36,600 634 Climbing Kansas Center
Sat 18:12:47 38.0528 -99.1453 85° East 475 547 37,000 195 Climbing Kansas Center
Sat 18:13:49 38.0633 -98.9800 85° East 472 543 37,000  Level Kansas Center
Sat 18:14:50 38.0742 -98.8128 85° East 474 545 37,000  Level Kansas Center
Sat 18:15:52 38.0833 -98.6436 86° East 478 550 37,000  Level Kansas Center
Sat 18:16:53 38.0956 -98.4753 85° East 477 549 37,000  Level Kansas Center
Sat 18:17:54 38.1053 -98.3064 86° East 478 550 37,000  Level Kansas Center
Sat 18:18:56 38.1153 -98.1375 86° East 476 548 37,000  Level Kansas Center
Sat 18:19:57 38.1236 -97.9703 86° East 469 540 37,000  Level Kansas Center
Sat 18:20:59 38.1331 -97.7856 86° East 464 534 37,000  Level Kansas Center
Sat 18:22:00 38.1411 -97.6222 86° East 464 534 37,000  Level Kansas Center
Sat 18:23:01 38.1492 -97.4558 86° East 456 525 37,000  Level Kansas Center
Sat 18:24:03 38.1553 -97.3194 87° East 449 517 37,000  Level Kansas Center
Sat 18:25:04 38.1631 -97.1636 86° East 442 509 37,000  Level Kansas Center
Sat 18:26:05 38.1706 -97.0111 86° East 435 501 37,000  Level Kansas Center
Sat 18:27:07 38.1781 -96.8269 87° East 435 501 37,000 49 Level Kansas Center
Sat 18:28:08 38.1861 -96.6758 86° East 431 496 37,100 293 Climbing Kansas Center
Sat 18:29:10 38.2003 -96.5242 83° East 434 499 37,600 683 Climbing Kansas Center
Sat 18:30:11 38.2319 -96.3728 75° East 437 503 38,500 541 Climbing Kansas Center
Sat 18:31:12 38.2617 -96.2286 75° East 440 506 38,700 244 Climbing Kansas Center
Sat 18:32:14 38.2967 -96.0589 75° East 446 513 39,000 146 Climbing Kansas Center
Sat 18:33:15 38.3264 -95.9111 76° East 450 518 39,000  Level Kansas Center
Sat 18:34:17 38.3611 -95.7383 76° East 453 521 39,000  Level Kansas Center
Sat 18:35:18 38.3911 -95.5900 75° East 454 522 39,000  Level Kansas Center
Sat 18:36:20 38.4264 -95.4147 76° East 456 525 39,000  Level Kansas Center
Sat 18:37:21 38.4550 -95.2678 76° East 453 521 39,000  Level Kansas Center
Sat 18:38:23 38.4836 -95.1211 76° East 448 516 39,000  Level Kansas Center
Sat 18:39:24 38.5169 -94.9511 76° East 446 513 39,000  Level Kansas Center
Sat 18:40:26 38.5447 -94.8053 76° East 444 511 39,000  Level Kansas Center
Sat 18:41:27 38.5767 -94.6372 76° East 439 505 39,000  Level Kansas Center
Sat 18:42:29 38.6042 -94.4931 76° East 438 504 39,000  Level Kansas Center
Sat 18:43:30 38.6353 -94.3256 77° East 436 502 39,000  Level Kansas Center
Sat 18:44:32 38.6619 -94.1806 77° East 437 503 39,000  Level Kansas Center
Sat 18:45:33 38.6883 -94.0364 77° East 437 503 39,000  Level Kansas Center
Sat 18:46:34 38.7194 -93.8667 77° East 437 503 39,000  Level Kansas Center
Sat 18:47:36 38.7458 -93.7256 76° East 443 510 39,000  Level Kansas Center
Sat 18:48:39 38.7731 -93.5706 77° East 444 511 39,000  Level Kansas Center
Sat 18:49:39 38.8061 -93.3836 77° East 444 511 39,000  Level Kansas Center
Sat 18:50:40 38.8339 -93.2258 77° East 448 516 39,000  Level Kansas Center
Sat 18:51:42 38.8597 -93.0708 78° East 445 512 39,000  Level Kansas Center
Sat 18:52:43 38.8861 -92.9150 78° East 444 511 39,000  Level Kansas Center
Sat 18:53:45 38.9147 -92.7561 77° East 448 516 39,000  Level Kansas Center
Sat 18:54:46 38.9419 -92.5997 77° East 449 517 39,000  Level Kansas Center
Sat 18:55:48 38.9669 -92.4450 78° East 444 511 39,000  Level Kansas Center
Sat 18:56:49 38.9928 -92.2900 78° East 441 507 39,000  Level Kansas Center
Sat 18:57:51 39.0164 -92.1414 78° East 430 495 39,000  Level Kansas Center
Sat 18:58:52 39.0406 -91.9925 78° East 424 488 39,000  Level Kansas Center
Sat 18:59:54 39.0653 -91.8450 78° East 423 487 39,000  Level Kansas Center
Sat 19:00:55 39.1206 -91.7122 62° Northeast 422 486 39,000  Level Kansas Center
Sat 19:01:57 39.1758 -91.5769 62° Northeast 424 488 39,000  Level Kansas Center
Sat 19:02:58 39.2447 -91.4175 61° Northeast 425 489 39,000  Level Kansas Center
Sat 19:03:59 39.3000 -91.2867 61° Northeast 420 483 39,000  Level Kansas Center
Sat 19:05:01 39.3525 -91.1519 63° Northeast 419 482 39,000  Level Kansas Center
Sat 19:06:02 39.4008 -91.0131 66° East 422 486 39,000  Level Kansas Center
Sat 19:07:04 39.4508 -90.8756 65° Northeast 422 486 39,000  Level Kansas Center
Sat 19:08:05 39.4911 -90.7303 70° East 426 490 39,000  Level Kansas Center
Sat 19:09:07 39.5322 -90.5867 70° East 426 490 39,000  Level Kansas Center
Sat 19:10:08 39.5619 -90.4397 75° East 423 487 39,000  Level Kansas Center
Sat 19:11:10 39.5825 -90.2881 80° East 425 489 39,000  Level Kansas Center
Sat 19:12:11 39.6042 -90.1369 79° East 426 490 39,000  Level Kansas Center
Sat 19:13:13 39.6289 -89.9556 80° East 425 489 39,000  Level Kansas Center
Sat 19:14:14 39.6492 -89.8044 80° East 425 489 39,000  Level Kansas Center
Sat 19:15:15 39.6700 -89.6556 80° East 422 486 39,000  Level Kansas Center
Sat 19:16:17 39.6900 -89.5050 80° East 423 487 39,000  Level Kansas Center
Sat 19:17:18 39.7081 -89.3708 80° East 420 483 39,000  Level Kansas Center
Sat 19:18:20 39.7311 -89.1944 80° East 416 479 39,000  Level Kansas Center
Sat 19:19:21 39.7492 -89.0469 81° East 416 479 39,000  Level Kansas Center
Sat 19:20:23 39.7694 -88.8986 80° East 417 480 39,000  Level Kansas Center
Sat 19:21:24 39.7883 -88.7492 81° East 419 482 39,000  Level Kansas Center
Sat 19:22:25 39.8064 -88.6008 81° East 418 481 39,000  Level Kansas Center
Sat 19:23:27 39.8256 -88.4506 81° East 420 483 39,000  Level Kansas Center
Sat 19:24:28 39.8447 -88.3003 81° East 421 484 39,000  Level Kansas Center
Sat 19:25:29 39.8661 -88.1272 81° East 424 488 39,000  Level Kansas Center
Sat 19:26:03 39.8736 -88.0592 82° East 424 488 39,000  Level Indianapolis Center
Sat 19:26:24 39.8819 -88.0014 79° East 419 482 39,000  Level Chicago Center
Sat 19:27:25 39.8981 -87.8500 82° East 421 484 39,000  Level Chicago Center
Sat 19:28:05 39.9094 -87.7578 81° East 425 489 39,000  Level Indianapolis Center
Sat 19:29:07 39.9317 -87.5733 81° East 431 496 39,000  Level Indianapolis Center
Sat 19:30:08 39.9486 -87.4214 82° East 428 493 39,000  Level Indianapolis Center
Sat 19:31:09 39.9667 -87.2656 81° East 434 499 39,000  Level Indianapolis Center
Sat 19:32:10 39.9842 -87.1117 82° East 431 496 39,000  Level Indianapolis Center
Sat 19:33:11 40.0025 -86.9553 81° East 436 502 39,000  Level Indianapolis Center
Sat 19:34:12 40.0192 -86.7997 82° East 434 499 39,000  Level Indianapolis Center
Sat 19:35:13 40.0361 -86.6425 82° East 435 501 39,000  Level Indianapolis Center
Sat 19:36:14 40.0533 -86.4858 82° East 435 501 39,000  Level Indianapolis Center
Sat 19:37:16 40.0708 -86.3278 82° East 436 502 39,000  Level Indianapolis Center
Sat 19:37:39 40.0778 -86.2647 82° East 439 505 39,000  Level Chicago Center
Sat 19:38:40 40.0939 -86.1069 82° East 438 504 39,000  Level Chicago Center
Sat 19:39:18 40.1028 -86.0125 83° East 436 502 39,000  Level Indianapolis Center
Sat 19:40:19 40.1181 -85.8558 83° East 434 499 39,000  Level Indianapolis Center
Sat 19:40:43 40.1256 -85.7942 81° East 433 498 39,000  Level Chicago Center
Sat 19:41:45 40.1433 -85.6094 83° East 430 495 39,000  Level Chicago Center
Sat 19:42:46 40.1589 -85.4564 82° East 428 493 39,000  Level Chicago Center
Sat 19:43:22 40.1650 -85.3622 85° East 429 494 39,000  Level Indianapolis Center
Sat 19:44:23 40.1808 -85.2100 82° East 425 489 39,000  Level Indianapolis Center
Sat 19:45:25 40.1956 -85.0581 83° East 423 487 39,000  Level Indianapolis Center
Sat 19:46:26 40.2083 -84.9061 84° East 422 486 39,000  Level Indianapolis Center
Sat 19:47:27 40.2231 -84.7653 82° East 421 484 39,000  Level Indianapolis Center
Sat 19:48:28 40.2392 -84.5856 83° East 422 486 39,000  Level Indianapolis Center
Sat 19:49:29 40.2531 -84.4314 83° East 422 486 39,000  Level Indianapolis Center
Sat 19:50:30 40.2667 -84.2769 83° East 424 488 39,000  Level Indianapolis Center
Sat 19:51:32 40.2797 -84.1211 84° East 426 490 39,000  Level Indianapolis Center
Sat 19:52:33 40.3189 -83.9731 71° East 431 496 39,000  Level Indianapolis Center
Sat 19:53:34 40.3839 -83.8314 59° Northeast 443 510 39,000  Level Indianapolis Center
Sat 19:54:35 40.4486 -83.6917 59° Northeast 443 510 39,000  Level Indianapolis Center
Sat 19:55:36 40.5125 -83.5519 59° Northeast 442 509 39,000  Level Indianapolis Center
Sat 19:56:37 40.5756 -83.4119 59° Northeast 439 505 39,000  Level Indianapolis Center
Sat 19:57:39 40.6392 -83.2731 59° Northeast 438 504 39,000  Level Indianapolis Center
Sat 19:58:24 40.6839 -83.1789 58° Northeast 438 504 39,000  Level Cleveland Center
Sat 19:59:24 40.7453 -83.0414 59° Northeast 438 504 39,000  Level Cleveland Center
Sat 20:00:24 40.7961 -82.8981 65° Northeast 438 504 39,000  Level Cleveland Center
Sat 20:01:24 40.8325 -82.7483 72° East 427 491 39,000  Level Cleveland Center
Sat 20:02:24 40.8708 -82.5958 72° East 427 491 39,000  Level Cleveland Center
Sat 20:03:24 40.9067 -82.4486 72° East 427 491 39,000  Level Cleveland Center
Sat 20:04:24 40.9467 -82.2847 72° East 422 486 39,000  Level Cleveland Center
Sat 20:05:24 40.9842 -82.1317 72° East 422 486 39,000  Level Cleveland Center
Sat 20:06:24 41.0217 -81.9811 72° East 422 486 39,000  Level Cleveland Center
Sat 20:07:24 41.0567 -81.8361 72° East 422 486 39,000  Level Cleveland Center
Sat 20:08:24 41.0917 -81.6850 73° East 422 486 39,000  Level Cleveland Center
Sat 20:09:24 41.1286 -81.5286 73° East 428 493 39,000  Level Cleveland Center
Sat 20:10:24 41.1650 -81.3775 72° East 428 493 39,000  Level Cleveland Center
Sat 20:11:24 41.2014 -81.2261 72° East 428 493 39,000  Level Cleveland Center
Sat 20:12:24 41.2378 -81.0747 72° East 428 493 39,000  Level Cleveland Center
Sat 20:13:24 41.2736 -80.9175 73° East 428 493 39,000  Level Cleveland Center
Sat 20:14:24 41.3094 -80.7628 73° East 435 501 39,000  Level Cleveland Center
Sat 20:15:24 41.3450 -80.6081 73° East 435 501 39,000  Level Cleveland Center
Sat 20:16:24 41.3803 -80.4531 73° East 440 506 39,000  Level Cleveland Center
Sat 20:17:24 41.4178 -80.2953 72° East 435 501 39,000  Level Cleveland Center
Sat 20:18:24 41.4525 -80.1369 74° East 435 501 39,000  Level Cleveland Center
Sat 20:19:24 41.4811 -80.0150 73° East 435 501 39,000  Level Cleveland Center
Sat 20:20:24 41.5219 -79.8289 74° East 435 501 39,000  Level Cleveland Center
Sat 20:21:24 41.5519 -79.6703 76° East 435 501 39,000  Level Cleveland Center
Sat 20:22:24 41.5442 -79.5039 94° East 435 501 39,000  Level Cleveland Center
Sat 20:23:24 41.5342 -79.3378 95° East 440 506 39,000  Level Cleveland Center
Sat 20:24:24 41.5239 -79.1742 95° East 446 513 39,000  Level Cleveland Center
Sat 20:25:24 41.5136 -79.0192 95° East 451 519 39,000  Level Cleveland Center
Sat 20:26:24 41.5008 -78.8419 95° East 458 527 39,000 -552 Level Cleveland Center
Sat 20:28:18 41.4783 -78.5275 95° East 481 554 37,400 -1,029 Descending New Center
Sat 20:29:19 41.4667 -78.3572 95° East 476 548 36,000 -1,438 Descending New Center
Sat 20:30:19 41.4522 -78.1867 96° East 464 534 34,500 -1,576 Descending New Center
Sat 20:31:17 41.4422 -78.0139 94° East 464 534 32,900 -1,576 Descending New Center
Sat 20:32:17 41.4275 -77.8433 97° East 469 540 31,400 -934 Descending New Center
Sat 20:33:19 41.4158 -77.6872 96° East 469 540 31,000 -634 Descending New Center
Sat 20:34:20 41.4025 -77.5172 96° East 469 540 30,100 -1,119 Descending New Center
Sat 20:35:17 41.3869 -77.3522 97° East 463 533 28,800 -1,119 Descending New Center
Sat 20:36:18 41.3714 -77.1794 97° East 463 533 27,900 -885 Descending New Center
Sat 20:37:19 41.3592 -77.0178 96° East 463 533 27,000 -793 Descending New Center
Sat 20:38:19 41.3447 -76.8533 97° East 452 520 26,300 -800 Descending New Center
Sat 20:39:19 41.3172 -76.6964 103° East 442 509 25,400 -915 Descending New Center
Sat 20:40:17 41.2694 -76.5264 110° East 442 509 24,500 -1,109 Descending New Center
Sat 20:41:18 41.2286 -76.3767 110° East 442 509 23,200 -1,736 Descending New Center
Sat 20:42:18 41.1897 -76.2300 109° East 436 502 21,000 -2,420 Descending New Center
Sat 20:43:17 41.1525 -76.0864 109° East 419 482 18,400 -1,475 Descending New Center
Sat 20:44:20 41.1203 -75.9656 109° East 397 457 18,000 -200 Descending New Center
Sat 20:45:17 41.0803 -75.8303 111° Southeast 392 451 18,000 -605 Level New Center
Sat 20:46:19 41.0428 -75.6817 108° East 392 451 16,800 -1,550 Descending New Center
Sat 20:47:17 41.0064 -75.5525 110° East 379 436 14,900 -1,729 Descending New Center
Sat 20:48:17 40.9733 -75.4403 111° Southeast 373 429 13,400 -1,438 Descending New Center
Sat 20:49:18 40.9406 -75.3256 111° Southeast 351 404 12,000 -1,377 Descending New Center
Sat 20:50:19 40.9114 -75.2164 109° East 297 342 10,600 -1,240 Descending New Center
Sat 20:51:19 40.8856 -75.1269 111° Southeast 272 313 9,500 -1,140 Descending New Center
Sat 20:52:20 40.8597 -75.0347 110° East 262 302 8,300 -1,261 Descending New Center
Sat 20:53:18 40.8375 -74.9564 111° Southeast 254 292 7,000 -655 Descending New Center
Sat 20:54:19 40.8244 -74.8514 99° East 260 299 7,000 -347 Level New Center
Sat 20:55:19 40.8461 -74.7650 72° East 248 285 6,300 -508 Descending New Center
Sat 20:56:17 40.8700 -74.6758 70° East 253 291 6,000 -300 Descending New Center
Sat 20:57:19 40.8936 -74.5867 71° East 253 291 5,700 -634 Descending New Center
Sat 20:58:20 40.9108 -74.5108 73° East 248 285 4,700 -857 Descending New Center
Sat 20:59:18 40.9097 -74.4092 91° East 237 273 4,000 -350 Descending New Center
Sat 21:00:20 40.9100 -74.3294 90° East 237 273 4,000 -504 Level New Center
Sat 21:01:17 40.9108 -74.2308 89° East 237 273 3,000 -500 Descending New Center
Sat 21:02:20 40.8967 -74.1450 102° East 237 273 3,000  Level New Center
Sat 21:03:18 40.8567 -74.0853 132° Southeast 242 278 3,000  Level New Center

Login

Don't have an account? Register now (free) for customized features, flight alerts, and more!